Time,TemperatureF,DewpointF,PressureIn,WindDirection,WindDirectionDegrees,WindSpeedMPH,WindSpeedGustMPH,Humidity,HourlyPrecipIn,Conditions,Clouds,dailyrainin,SoftwareType,DateUTC
2013-09-08 00:01:00,68.9,64.2,29.89,SSE,162,7.0,11.0,85,0.00,,,0.00,LWC V2.10 B1813,2013-09-08 04:01:00,
2013-09-08 00:02:00,68.9,64.2,29.89,East,88,2.0,13.0,85,0.00,,,0.00,LWC V2.10 B1813,2013-09-08 04:02:00,
2013-09-08 00:04:00,68.9,64.2,29.89,South,185,2.0,10.0,85,0.00,,,0.00,LWC V2.10 B1813,2013-09-08 04:04:00,
2013-09-08 00:08:00,68.9,64.2,29.88,South,183,5.0,13.0,85,0.00,,,0.00,LWC V2.10 B1813,2013-09-08 04:08:00,
2013-09-08 00:12:00,68.9,64.5,29.88,SSE,153,5.0,14.0,86,0.00,,,0.00,LWC V2.10 B1813,2013-09-08 04:12:00,
2013-09-08 00:18:00,69.0,64.3,29.88,SSW,196,6.0,10.0,85,0.00,,,0.00,LWC V2.10 B1813,2013-09-08 04:18:00,
2013-09-08 00:23:00,68.9,64.2,29.88,South,190,5.0,12.0,85,0.00,,,0.00,LWC V2.10 B1813,2013-09-08 04:23:00,
2013-09-08 00:28:00,68.9,64.2,29.88,SW,230,11.0,14.0,85,0.00,,,0.00,LWC V2.10 B1813,2013-09-08 04:28:00,
2013-09-08 00:30:00,68.0,59.4,29.92,South,169,10.0,18.0,74,0.00,,,0.00,LWC V2.10 B1813,2013-09-08 04:30:00,
2013-09-08 00:33:00,69.0,64.3,29.88,SW,229,8.0,11.0,85,0.00,,,0.00,LWC V2.10 B1813,2013-09-08 04:33:00,
2013-09-08 00:39:00,69.0,64.3,29.88,South,180,5.0,11.0,85,0.00,,,0.00,LWC V2.10 B1813,2013-09-08 04:39:00,
2013-09-08 00:40:00,67.8,59.2,29.92,South,177,10.0,18.0,74,0.00,,,0.00,LWC V2.10 B1813,2013-09-08 04:40:00,
2013-09-08 00:50:00,67.7,59.9,29.92,SSE,168,8.0,18.0,76,0.00,,,0.00,LWC V2.10 B1813,2013-09-08 04:50:00,
2013-09-08 01:00:00,67.6,59.8,29.92,SSE,164,10.0,18.0,76,0.00,,,0.00,LWC V2.10 B1813,2013-09-08 05:00:00,
2013-09-08 01:10:00,67.6,60.1,29.92,SSE,166,10.0,18.0,77,0.00,,,0.00,LWC V2.10 B1813,2013-09-08 05:10:00,
2013-09-08 01:20:00,67.7,59.9,29.92,South,172,10.0,17.0,76,0.00,,,0.00,LWC V2.10 B1813,2013-09-08 05:20:00,
2013-09-08 01:30:00,67.7,60.2,29.92,South,175,9.0,17.0,77,0.00,,,0.00,LWC V2.10 B1813,2013-09-08 05:30:00,
2013-09-08 01:40:00,67.8,60.7,29.92,South,174,9.0,17.0,78,0.00,,,0.00,LWC V2.10 B1813,2013-09-08 05:40:00,
2013-09-08 01:50:00,67.7,60.6,29.92,South,171,8.0,17.0,78,0.00,,,0.00,LWC V2.10 B1813,2013-09-08 05:50:00,
2013-09-08 02:00:00,67.7,60.6,29.92,South,174,8.0,16.0,78,0.00,,,0.00,LWC V2.10 B1813,2013-09-08 06:00:00,
2013-09-08 02:10:00,67.7,60.6,29.92,South,172,8.0,16.0,78,0.00,,,0.00,LWC V2.10 B1813,2013-09-08 06:10:00,
2013-09-08 02:20:00,67.8,60.7,29.92,South,176,8.0,15.0,78,0.00,,,0.00,LWC V2.10 B1813,2013-09-08 06:20:00,
2013-09-08 02:30:00,67.9,60.8,29.92,South,176,7.0,14.0,78,0.00,,,0.00,LWC V2.10 B1813,2013-09-08 06:30:00,
2013-09-08 02:40:00,68.0,61.2,29.92,South,176,7.0,15.0,79,0.00,,,0.00,LWC V2.10 B1813,2013-09-08 06:40:00,
2013-09-08 02:50:00,68.1,61.0,29.92,South,172,8.0,17.0,78,0.00,,,0.00,LWC V2.10 B1813,2013-09-08 06:50:00,
2013-09-08 03:00:00,68.2,61.4,29.91,South,176,8.0,17.0,79,0.00,,,0.00,LWC V2.10 B1813,2013-09-08 07:00:00,
2013-09-08 03:10:00,68.2,61.4,29.91,South,175,7.0,17.0,79,0.00,,,0.00,LWC V2.10 B1813,2013-09-08 07:10:00,
2013-09-08 03:20:00,68.1,61.3,29.91,South,175,8.0,16.0,79,0.00,,,0.00,LWC V2.10 B1813,2013-09-08 07:20:00,
2013-09-08 03:30:00,68.2,61.4,29.91,South,176,8.0,16.0,79,0.00,,,0.00,LWC V2.10 B1813,2013-09-08 07:30:00,
2013-09-08 03:40:00,68.3,61.9,29.91,South,181,7.0,13.0,80,0.00,,,0.00,LWC V2.10 B1813,2013-09-08 07:40:00,
2013-09-08 03:50:00,68.4,62.0,29.91,South,175,6.0,15.0,80,0.00,,,0.00,LWC V2.10 B1813,2013-09-08 07:50:00,
2013-09-08 04:00:00,68.5,62.1,29.91,South,173,7.0,15.0,80,0.00,,,0.00,LWC V2.10 B1813,2013-09-08 08:00:00,
2013-09-08 04:10:00,68.4,62.0,29.91,South,175,8.0,15.0,80,0.00,,,0.00,LWC V2.10 B1813,2013-09-08 08:10:00,
2013-09-08 04:20:00,68.4,62.3,29.90,South,175,7.0,14.0,81,0.00,,,0.00,LWC V2.10 B1813,2013-09-08 08:20:00,
2013-09-08 04:30:00,68.4,62.3,29.90,South,175,8.0,14.0,81,0.00,,,0.00,LWC V2.10 B1813,2013-09-08 08:30:00,
2013-09-08 04:40:00,68.5,62.8,29.90,South,176,8.0,14.0,82,0.00,,,0.00,LWC V2.10 B1813,2013-09-08 08:40:00,
2013-09-08 04:50:00,68.5,62.8,29.89,South,175,7.0,12.0,82,0.00,,,0.00,LWC V2.10 B1813,2013-09-08 08:50:00,
2013-09-08 05:00:00,68.7,63.7,29.90,South,175,5.0,12.0,84,0.00,,,0.00,LWC V2.10 B1813,2013-09-08 09:00:00,
2013-09-08 05:10:00,68.8,63.8,29.89,South,176,6.0,17.0,84,0.00,,,0.00,LWC V2.10 B1813,2013-09-08 09:10:00,
2013-09-08 05:20:00,68.9,64.2,29.89,South,179,6.0,17.0,85,0.00,,,0.00,LWC V2.10 B1813,2013-09-08 09:20:00,
2013-09-08 05:30:00,68.9,64.2,29.89,South,181,5.0,17.0,85,0.00,,,0.00,LWC V2.10 B1813,2013-09-08 09:30:00,
2013-09-08 05:40:00,68.9,64.2,29.88,South,179,6.0,14.0,85,0.00,,,0.00,LWC V2.10 B1813,2013-09-08 09:40:00,
2013-09-08 05:50:00,68.9,64.2,29.88,South,189,6.0,14.0,85,0.00,,,0.00,LWC V2.10 B1813,2013-09-08 09:50:00,
2013-09-08 06:01:00,68.3,63.3,29.80,SSW,192,7.0,14.0,84,0.00,,,0.00,LWC V2.10 B1813,2013-09-08 10:01:00,
2013-09-08 06:07:00,68.3,63.3,29.80,South,183,2.0,14.0,84,0.00,,,0.00,LWC V2.10 B1813,2013-09-08 10:07:00,
2013-09-08 06:12:00,68.2,62.8,29.80,South,179,4.0,11.0,83,0.00,,,0.00,LWC V2.10 B1813,2013-09-08 10:12:00,
2013-09-08 06:17:00,68.1,63.1,29.80,SSW,203,9.0,13.0,84,0.00,,,0.00,LWC V2.10 B1813,2013-09-08 10:17:00,
2013-09-08 06:26:00,67.9,63.2,29.80,SSW,200,6.0,9.0,85,0.00,,,0.00,LWC V2.10 B1813,2013-09-08 10:26:00,
2013-09-08 06:31:00,67.8,63.5,29.80,SSW,198,8.0,9.0,86,0.00,,,0.00,LWC V2.10 B1813,2013-09-08 10:31:00,
2013-09-08 06:36:00,67.8,63.8,29.79,South,169,8.0,10.0,87,0.00,,,0.00,LWC V2.10 B1813,2013-09-08 10:36:00,
2013-09-08 06:41:00,67.8,64.1,29.79,SW,232,5.0,9.0,88,0.00,,,0.00,LWC V2.10 B1813,2013-09-08 10:41:00,
2013-09-08 06:47:00,67.6,63.9,29.80,SW,234,9.0,11.0,88,0.00,,,0.00,LWC V2.10 B1813,2013-09-08 10:47:00,
2013-09-08 06:52:00,67.5,63.8,29.80,WSW,238,10.0,10.0,88,0.00,,,0.00,LWC V2.10 B1813,2013-09-08 10:52:00,
2013-09-08 06:57:00,67.3,63.6,29.80,SW,219,7.0,12.0,88,0.00,,,0.00,LWC V2.10 B1813,2013-09-08 10:57:00,
2013-09-08 07:02:00,67.1,63.7,29.80,SW,236,6.0,10.0,89,0.00,,,0.00,LWC V2.10 B1813,2013-09-08 11:02:00,
2013-09-08 07:08:00,67.0,63.6,29.80,SW,221,2.0,11.0,89,0.00,,,0.00,LWC V2.10 B1813,2013-09-08 11:08:00,
2013-09-08 07:13:00,67.1,63.7,29.80,WSW,242,12.0,12.0,89,0.00,,,0.00,LWC V2.10 B1813,2013-09-08 11:13:00,
2013-09-08 07:18:00,67.2,63.8,29.80,SW,218,7.0,17.0,89,0.00,,,0.00,LWC V2.10 B1813,2013-09-08 11:18:00,
2013-09-08 07:23:00,67.3,63.9,29.80,SSW,211,6.0,15.0,89,0.00,,,0.00,LWC V2.10 B1813,2013-09-08 11:23:00,
2013-09-08 07:29:00,67.3,63.9,29.81,SW,223,9.0,9.0,89,0.00,,,0.00,LWC V2.10 B1813,2013-09-08 11:29:00,
2013-09-08 07:34:00,67.2,63.5,29.81,SSW,212,7.0,9.0,88,0.00,,,0.00,LWC V2.10 B1813,2013-09-08 11:34:00,
2013-09-08 07:39:00,67.3,63.6,29.81,South,189,3.0,14.0,88,0.00,,,0.00,LWC V2.10 B1813,2013-09-08 11:39:00,
2013-09-08 07:44:00,67.3,63.6,29.81,SW,231,5.0,13.0,88,0.00,,,0.00,LWC V2.10 B1813,2013-09-08 11:44:00,
2013-09-08 07:50:00,67.5,63.8,29.80,SW,231,10.0,13.0,88,0.00,,,0.00,LWC V2.10 B1813,2013-09-08 11:50:00,
2013-09-08 07:55:00,67.7,63.7,29.80,SSW,210,2.0,13.0,87,0.00,,,0.00,LWC V2.10 B1813,2013-09-08 11:55:00,
2013-09-08 08:00:00,67.9,63.9,29.80,SW,216,8.0,12.0,87,0.00,,,0.00,LWC V2.10 B1813,2013-09-08 12:00:00,
2013-09-08 08:05:00,67.9,63.9,29.80,SW,217,6.0,11.0,87,0.00,,,0.00,LWC V2.10 B1813,2013-09-08 12:05:00,
2013-09-08 08:11:00,68.0,64.0,29.80,SW,230,7.0,10.0,87,0.00,,,0.00,LWC V2.10 B1813,2013-09-08 12:11:00,
2013-09-08 08:16:00,68.0,64.0,29.80,SSW,213,4.0,8.0,87,0.00,,,0.00,LWC V2.10 B1813,2013-09-08 12:16:00,
2013-09-08 08:21:00,68.2,63.8,29.80,SW,217,7.0,10.0,86,0.00,,,0.00,LWC V2.10 B1813,2013-09-08 12:21:00,
2013-09-08 08:26:00,68.5,64.1,29.80,SW,231,4.0,9.0,86,0.00,,,0.00,LWC V2.10 B1813,2013-09-08 12:26:00,
2013-09-08 08:32:00,68.8,64.1,29.79,WSW,245,6.0,10.0,85,0.00,,,0.00,LWC V2.10 B1813,2013-09-08 12:32:00,
2013-09-08 08:37:00,69.0,64.0,29.79,SW,215,9.0,10.0,84,0.00,,,0.00,LWC V2.10 B1813,2013-09-08 12:37:00,
2013-09-08 08:42:00,69.3,64.2,29.79,SW,221,6.0,9.0,84,0.00,,,0.00,LWC V2.10 B1813,2013-09-08 12:42:00,
2013-09-08 08:47:00,69.7,64.3,29.79,WSW,242,2.0,9.0,83,0.00,,,0.00,LWC V2.10 B1813,2013-09-08 12:47:00,
2013-09-08 08:53:00,69.9,64.5,29.80,SW,236,3.0,9.0,83,0.00,,,0.00,LWC V2.10 B1813,2013-09-08 12:53:00,
2013-09-08 08:58:00,70.2,64.4,29.80,SW,225,5.0,9.0,82,0.00,,,0.00,LWC V2.10 B1813,2013-09-08 12:58:00,
2013-09-08 09:03:00,70.5,64.7,29.80,SSW,207,3.0,7.0,82,0.00,,,0.00,LWC V2.10 B1813,2013-09-08 13:03:00,
2013-09-08 09:08:00,71.0,64.5,29.79,SW,219,2.0,6.0,80,0.00,,,0.00,LWC V2.10 B1813,2013-09-08 13:08:00,
2013-09-08 09:14:00,71.4,64.5,29.79,WSW,244,2.0,13.0,79,0.00,,,0.00,LWC V2.10 B1813,2013-09-08 13:14:00,
2013-09-08 09:19:00,71.6,64.7,29.80,WSW,240,5.0,13.0,79,0.00,,,0.00,LWC V2.10 B1813,2013-09-08 13:19:00,
2013-09-08 09:24:00,71.7,64.5,29.79,West,272,5.0,14.0,78,0.00,,,0.00,LWC V2.10 B1813,2013-09-08 13:24:00,
2013-09-08 09:29:00,71.6,64.0,29.79,SSW,209,1.0,16.0,77,0.00,,,0.00,LWC V2.10 B1813,2013-09-08 13:29:00,
2013-09-08 09:35:00,71.8,64.9,29.79,WSW,239,2.0,10.0,79,0.00,,,0.00,LWC V2.10 B1813,2013-09-08 13:35:00,
2013-09-08 09:40:00,72.0,65.1,29.79,SSW,210,7.0,9.0,79,0.00,,,0.00,LWC V2.10 B1813,2013-09-08 13:40:00,
2013-09-08 09:45:00,72.3,65.4,29.79,SSW,192,4.0,6.0,79,0.00,,,0.00,LWC V2.10 B1813,2013-09-08 13:45:00,
2013-09-08 09:50:00,72.5,64.9,29.79,SSW,212,5.0,9.0,77,0.00,,,0.00,LWC V2.10 B1813,2013-09-08 13:50:00,
2013-09-08 09:56:00,72.6,65.3,29.79,WSW,252,12.0,12.0,78,0.00,,,0.00,LWC V2.10 B1813,2013-09-08 13:56:00,
2013-09-08 10:01:00,72.5,64.9,29.79,South,186,8.0,10.0,77,0.00,,,0.00,LWC V2.10 B1813,2013-09-08 14:01:00,
2013-09-08 10:06:00,72.7,65.4,29.78,SW,231,9.0,9.0,78,0.00,,,0.00,LWC V2.10 B1813,2013-09-08 14:06:00,
2013-09-08 10:11:00,72.7,65.1,29.78,WSW,254,10.0,10.0,77,0.00,,,0.00,LWC V2.10 B1813,2013-09-08 14:11:00,
2013-09-08 10:17:00,72.8,64.4,29.78,SW,229,0.0,13.0,75,0.00,,,0.00,LWC V2.10 B1813,2013-09-08 14:17:00,
2013-09-08 10:22:00,73.1,65.1,29.78,WNW,302,2.0,9.0,76,0.00,,,0.00,LWC V2.10 B1813,2013-09-08 14:22:00,
2013-09-08 10:27:00,73.3,64.9,29.79,SW,219,4.0,11.0,75,0.00,,,0.00,LWC V2.10 B1813,2013-09-08 14:27:00,
2013-09-08 10:32:00,73.3,64.9,29.79,WSW,248,3.0,12.0,75,0.00,,,0.00,LWC V2.10 B1813,2013-09-08 14:32:00,
2013-09-08 10:38:00,73.4,65.0,29.79,West,280,8.0,11.0,75,0.00,,,0.00,LWC V2.10 B1813,2013-09-08 14:38:00,
2013-09-08 10:43:00,73.6,65.2,29.80,SW,232,2.0,8.0,75,0.00,,,0.00,LWC V2.10 B1813,2013-09-08 14:43:00,
2013-09-08 10:48:00,73.7,65.3,29.79,WSW,246,3.0,11.0,75,0.00,,,0.00,LWC V2.10 B1813,2013-09-08 14:48:00,
2013-09-08 10:53:00,73.1,64.3,29.79,WNW,295,5.0,12.0,74,0.00,,,0.00,LWC V2.10 B1813,2013-09-08 14:53:00,
2013-09-08 10:59:00,73.0,64.6,29.79,West,263,2.0,8.0,75,0.00,,,0.00,LWC V2.10 B1813,2013-09-08 14:59:00,
2013-09-08 11:04:00,73.2,64.8,29.79,WSW,258,2.0,10.0,75,0.00,,,0.00,LWC V2.10 B1813,2013-09-08 15:04:00,
2013-09-08 11:10:00,73.5,65.1,29.79,WSW,250,6.0,11.0,75,0.00,,,0.00,LWC V2.10 B1813,2013-09-08 15:10:00,
2013-09-08 11:15:00,73.2,64.8,29.79,SW,233,3.0,11.0,75,0.00,,,0.00,LWC V2.10 B1813,2013-09-08 15:15:00,
2013-09-08 11:20:00,73.5,64.7,29.79,WNW,293,0.0,9.0,74,0.00,,,0.00,LWC V2.10 B1813,2013-09-08 15:20:00,
2013-09-08 11:25:00,73.7,64.9,29.79,WSW,242,9.0,10.0,74,0.00,,,0.00,LWC V2.10 B1813,2013-09-08 15:25:00,
2013-09-08 11:31:00,73.5,65.1,29.79,West,280,1.0,11.0,75,0.00,,,0.00,LWC V2.10 B1813,2013-09-08 15:31:00,
2013-09-08 11:36:00,74.0,65.6,29.79,WSW,248,1.0,6.0,75,0.00,,,0.00,LWC V2.10 B1813,2013-09-08 15:36:00,
2013-09-08 11:41:00,73.5,64.7,29.79,West,262,1.0,5.0,74,0.00,,,0.00,LWC V2.10 B1813,2013-09-08 15:41:00,
2013-09-08 11:46:00,73.7,64.5,29.79,West,278,3.0,10.0,73,0.00,,,0.00,LWC V2.10 B1813,2013-09-08 15:46:00,
2013-09-08 11:52:00,74.0,65.2,29.79,West,275,7.0,9.0,74,0.00,,,0.00,LWC V2.10 B1813,2013-09-08 15:52:00,
2013-09-08 11:57:00,74.3,65.5,29.79,West,268,7.0,10.0,74,0.00,,,0.00,LWC V2.10 B1813,2013-09-08 15:57:00,
2013-09-08 12:02:00,74.2,65.0,29.79,West,273,4.0,10.0,73,0.00,,,0.00,LWC V2.10 B1813,2013-09-08 16:02:00,
2013-09-08 12:07:00,74.3,65.5,29.79,West,263,2.0,8.0,74,0.00,,,0.00,LWC V2.10 B1813,2013-09-08 16:07:00,
2013-09-08 12:13:00,75.0,65.7,29.79,WNW,297,2.0,7.0,73,0.00,,,0.00,LWC V2.10 B1813,2013-09-08 16:13:00,
2013-09-08 12:18:00,75.6,66.3,29.79,WNW,288,6.0,7.0,73,0.00,,,0.00,LWC V2.10 B1813,2013-09-08 16:18:00,
2013-09-08 12:23:00,76.1,66.4,29.79,WSW,249,11.0,11.0,72,0.00,,,0.00,LWC V2.10 B1813,2013-09-08 16:23:00,
2013-09-08 12:28:00,75.8,66.1,29.79,WSW,251,0.0,9.0,72,0.00,,,0.00,LWC V2.10 B1813,2013-09-08 16:28:00,
2013-09-08 12:34:00,75.6,65.9,29.79,NW,323,5.0,8.0,72,0.00,,,0.00,LWC V2.10 B1813,2013-09-08 16:34:00,
2013-09-08 12:39:00,76.2,66.5,29.79,WSW,248,3.0,10.0,72,0.00,,,0.00,LWC V2.10 B1813,2013-09-08 16:39:00,
2013-09-08 12:44:00,75.8,66.1,29.79,West,271,4.0,12.0,72,0.00,,,0.00,LWC V2.10 B1813,2013-09-08 16:44:00,
2013-09-08 12:49:00,75.8,66.5,29.79,West,266,4.0,8.0,73,0.00,,,0.00,LWC V2.10 B1813,2013-09-08 16:49:00,
2013-09-08 12:55:00,75.8,66.5,29.79,NW,310,3.0,7.0,73,0.00,,,0.00,LWC V2.10 B1813,2013-09-08 16:55:00,
2013-09-08 13:00:00,76.8,67.9,29.79,WNW,287,5.0,8.0,74,0.00,,,0.00,LWC V2.10 B1813,2013-09-08 17:00:00,
2013-09-08 13:05:00,77.2,67.5,29.79,WNW,294,5.0,5.0,72,0.00,,,0.00,LWC V2.10 B1813,2013-09-08 17:05:00,
2013-09-08 13:10:00,77.2,66.6,29.79,NW,306,7.0,11.0,70,0.00,,,0.00,LWC V2.10 B1813,2013-09-08 17:10:00,
2013-09-08 13:16:00,77.1,67.0,29.79,NW,315,0.0,5.0,71,0.00,,,0.00,LWC V2.10 B1813,2013-09-08 17:16:00,
2013-09-08 13:21:00,76.7,66.6,29.79,WSW,244,0.0,11.0,71,0.00,,,0.00,LWC V2.10 B1813,2013-09-08 17:21:00,
2013-09-08 13:26:00,76.7,67.0,29.79,West,264,4.0,9.0,72,0.00,,,0.00,LWC V2.10 B1813,2013-09-08 17:26:00,
2013-09-08 13:31:00,76.6,67.3,29.79,West,259,4.0,8.0,73,0.00,,,0.00,LWC V2.10 B1813,2013-09-08 17:31:00,
2013-09-08 13:37:00,76.1,66.8,29.79,WSW,238,4.0,11.0,73,0.00,,,0.00,LWC V2.10 B1813,2013-09-08 17:37:00,
2013-09-08 13:42:00,76.2,67.3,29.79,WNW,295,4.0,11.0,74,0.00,,,0.00,LWC V2.10 B1813,2013-09-08 17:42:00,
2013-09-08 13:47:00,76.5,67.6,29.79,West,263,6.0,7.0,74,0.00,,,0.00,LWC V2.10 B1813,2013-09-08 17:47:00,
2013-09-08 13:52:00,76.7,67.0,29.79,NW,313,1.0,8.0,72,0.00,,,0.00,LWC V2.10 B1813,2013-09-08 17:52:00,
2013-09-08 13:58:00,76.8,67.1,29.79,West,267,0.0,7.0,72,0.00,,,0.00,LWC V2.10 B1813,2013-09-08 17:58:00,
2013-09-08 14:03:00,77.4,67.2,29.79,NW,319,3.0,6.0,71,0.00,,,0.00,LWC V2.10 B1813,2013-09-08 18:03:00,
2013-09-08 14:08:00,77.0,66.4,29.79,WNW,286,5.0,11.0,70,0.00,,,0.00,LWC V2.10 B1813,2013-09-08 18:08:00,
2013-09-08 14:13:00,77.0,66.4,29.79,West,280,4.0,11.0,70,0.00,,,0.00,LWC V2.10 B1813,2013-09-08 18:13:00,
2013-09-08 14:19:00,76.7,66.6,29.79,West,265,2.0,11.0,71,0.00,,,0.00,LWC V2.10 B1813,2013-09-08 18:19:00,
2013-09-08 14:24:00,76.5,66.0,29.79,NNW,331,5.0,8.0,70,0.00,,,0.00,LWC V2.10 B1813,2013-09-08 18:24:00,
2013-09-08 14:29:00,77.0,66.0,29.79,WNW,296,1.0,9.0,69,0.00,,,0.00,LWC V2.10 B1813,2013-09-08 18:29:00,
2013-09-08 14:34:00,77.4,66.0,29.79,WNW,285,1.0,5.0,68,0.00,,,0.00,LWC V2.10 B1813,2013-09-08 18:34:00,
2013-09-08 14:40:00,76.8,65.0,29.80,NW,313,4.0,9.0,67,0.00,,,0.00,LWC V2.10 B1813,2013-09-08 18:40:00,
2013-09-08 14:45:00,76.4,64.6,29.80,WSW,257,5.0,10.0,67,0.00,,,0.00,LWC V2.10 B1813,2013-09-08 18:45:00,
2013-09-08 14:50:00,76.3,64.9,29.80,SSE,161,1.0,9.0,68,0.00,,,0.00,LWC V2.10 B1813,2013-09-08 18:50:00,
2013-09-08 14:55:00,76.3,65.4,29.80,West,272,5.0,9.0,69,0.00,,,0.00,LWC V2.10 B1813,2013-09-08 18:55:00,
2013-09-08 15:01:00,76.3,65.4,29.80,WNW,285,0.0,8.0,69,0.00,,,0.00,LWC V2.10 B1813,2013-09-08 19:01:00,
2013-09-08 15:06:00,76.9,65.5,29.80,WSW,251,0.0,10.0,68,0.00,,,0.00,LWC V2.10 B1813,2013-09-08 19:06:00,
2013-09-08 15:11:00,77.3,65.5,29.80,NW,323,1.0,7.0,67,0.00,,,0.00,LWC V2.10 B1813,2013-09-08 19:11:00,
2013-09-08 15:16:00,77.8,65.5,29.80,WSW,257,8.0,8.0,66,0.00,,,0.00,LWC V2.10 B1813,2013-09-08 19:16:00,
2013-09-08 15:22:00,78.0,65.7,29.80,NW,311,4.0,10.0,66,0.00,,,0.00,LWC V2.10 B1813,2013-09-08 19:22:00,
2013-09-08 15:27:00,78.0,65.7,29.80,West,275,3.0,6.0,66,0.00,,,0.00,LWC V2.10 B1813,2013-09-08 19:27:00,
2013-09-08 15:32:00,78.3,66.4,29.80,NW,313,8.0,8.0,67,0.00,,,0.00,LWC V2.10 B1813,2013-09-08 19:32:00,
2013-09-08 15:37:00,78.2,65.4,29.80,West,275,2.0,6.0,65,0.00,,,0.00,LWC V2.10 B1813,2013-09-08 19:37:00,
2013-09-08 15:43:00,78.2,65.4,29.81,WNW,282,0.0,8.0,65,0.00,,,0.00,LWC V2.10 B1813,2013-09-08 19:43:00,
2013-09-08 15:48:00,78.3,65.1,29.81,West,265,4.0,9.0,64,0.00,,,0.00,LWC V2.10 B1813,2013-09-08 19:48:00,
2013-09-08 15:53:00,77.9,65.2,29.81,WSW,241,5.0,9.0,65,0.00,,,0.00,LWC V2.10 B1813,2013-09-08 19:53:00,
2013-09-08 15:58:00,77.3,64.6,29.81,NW,321,2.0,14.0,65,0.00,,,0.00,LWC V2.10 B1813,2013-09-08 19:58:00,
2013-09-08 16:04:00,77.3,65.5,29.81,NW,313,5.0,5.0,67,0.00,,,0.00,LWC V2.10 B1813,2013-09-08 20:04:00,
2013-09-08 16:09:00,77.3,65.0,29.81,WNW,296,1.0,5.0,66,0.00,,,0.00,LWC V2.10 B1813,2013-09-08 20:09:00,
2013-09-08 16:14:00,77.9,64.7,29.82,South,177,10.0,10.0,64,0.00,,,0.00,LWC V2.10 B1813,2013-09-08 20:14:00,
2013-09-08 16:19:00,77.7,63.2,29.81,WNW,298,3.0,15.0,61,0.00,,,0.00,LWC V2.10 B1813,2013-09-08 20:19:00,
2013-09-08 16:25:00,77.1,62.6,29.82,West,279,12.0,16.0,61,0.00,,,0.00,LWC V2.10 B1813,2013-09-08 20:25:00,
2013-09-08 16:30:00,77.1,62.1,29.82,WNW,287,4.0,11.0,60,0.00,,,0.00,LWC V2.10 B1813,2013-09-08 20:30:00,
2013-09-08 16:35:00,76.9,61.5,29.82,West,280,1.0,10.0,59,0.00,,,0.00,LWC V2.10 B1813,2013-09-08 20:35:00,
2013-09-08 16:40:00,77.1,60.7,29.83,WNW,282,2.0,14.0,57,0.00,,,0.00,LWC V2.10 B1813,2013-09-08 20:40:00,
2013-09-08 16:46:00,76.5,59.6,29.83,NW,315,12.0,12.0,56,0.00,,,0.00,LWC V2.10 B1813,2013-09-08 20:46:00,
2013-09-08 16:51:00,75.4,59.1,29.83,WNW,286,0.0,5.0,57,0.00,,,0.00,LWC V2.10 B1813,2013-09-08 20:51:00,
2013-09-08 16:56:00,75.5,59.2,29.83,West,264,0.0,6.0,57,0.00,,,0.00,LWC V2.10 B1813,2013-09-08 20:56:00,
2013-09-08 17:01:00,75.1,58.8,29.83,West,273,6.0,10.0,57,0.00,,,0.00,LWC V2.10 B1813,2013-09-08 21:01:00,
2013-09-08 17:07:00,75.2,58.4,29.83,WNW,288,3.0,14.0,56,0.00,,,0.00,LWC V2.10 B1813,2013-09-08 21:07:00,
2013-09-08 17:12:00,75.5,58.7,29.84,NW,319,12.0,12.0,56,0.00,,,0.00,LWC V2.10 B1813,2013-09-08 21:12:00,
2013-09-08 17:17:00,75.5,59.2,29.84,NNW,338,5.0,9.0,57,0.00,,,0.00,LWC V2.10 B1813,2013-09-08 21:17:00,
2013-09-08 17:22:00,75.5,59.2,29.84,WNW,287,7.0,10.0,57,0.00,,,0.00,LWC V2.10 B1813,2013-09-08 21:22:00,
2013-09-08 17:28:00,75.2,57.9,29.85,WNW,288,11.0,17.0,55,0.00,,,0.00,LWC V2.10 B1813,2013-09-08 21:28:00,
2013-09-08 17:33:00,75.2,57.9,29.85,NNW,338,5.0,12.0,55,0.00,,,0.00,LWC V2.10 B1813,2013-09-08 21:33:00,
2013-09-08 17:38:00,75.1,57.3,29.85,NW,323,6.0,8.0,54,0.00,,,0.00,LWC V2.10 B1813,2013-09-08 21:38:00,
2013-09-08 17:43:00,75.1,57.3,29.85,NW,308,2.0,9.0,54,0.00,,,0.00,LWC V2.10 B1813,2013-09-08 21:43:00,
2013-09-08 17:49:00,74.9,57.6,29.85,West,262,1.0,6.0,55,0.00,,,0.00,LWC V2.10 B1813,2013-09-08 21:49:00,
2013-09-08 17:54:00,74.7,57.4,29.86,NNW,345,6.0,12.0,55,0.00,,,0.00,LWC V2.10 B1813,2013-09-08 21:54:00,
2013-09-08 17:59:00,74.5,57.8,29.86,NW,317,14.0,14.0,56,0.00,,,0.00,LWC V2.10 B1813,2013-09-08 21:59:00,
2013-09-08 18:04:00,74.1,56.9,29.87,NNW,339,3.0,12.0,55,0.00,,,0.00,LWC V2.10 B1813,2013-09-08 22:04:00,
2013-09-08 18:10:00,73.9,56.7,29.87,WNW,286,3.0,13.0,55,0.00,,,0.00,LWC V2.10 B1813,2013-09-08 22:10:00,
2013-09-08 18:15:00,73.7,56.0,29.87,WNW,295,9.0,12.0,54,0.00,,,0.00,LWC V2.10 B1813,2013-09-08 22:15:00,
2013-09-08 18:20:00,73.3,55.6,29.87,NW,325,2.0,12.0,54,0.00,,,0.00,LWC V2.10 B1813,2013-09-08 22:20:00,
2013-09-08 18:25:00,73.1,56.0,29.88,NNW,333,6.0,8.0,55,0.00,,,0.00,LWC V2.10 B1813,2013-09-08 22:25:00,
2013-09-08 18:31:00,72.9,55.8,29.88,WNW,288,4.0,8.0,55,0.00,,,0.00,LWC V2.10 B1813,2013-09-08 22:31:00,
2013-09-08 18:36:00,72.8,55.7,29.89,NW,305,4.0,12.0,55,0.00,,,0.00,LWC V2.10 B1813,2013-09-08 22:36:00,
2013-09-08 18:41:00,72.6,56.5,29.89,NW,312,1.0,6.0,57,0.00,,,0.00,LWC V2.10 B1813,2013-09-08 22:41:00,
2013-09-08 18:46:00,72.3,56.2,29.89,NW,315,0.0,8.0,57,0.00,,,0.00,LWC V2.10 B1813,2013-09-08 22:46:00,
2013-09-08 18:52:00,71.9,55.8,29.90,NW,306,2.0,9.0,57,0.00,,,0.00,LWC V2.10 B1813,2013-09-08 22:52:00,
2013-09-08 18:57:00,71.5,55.9,29.90,NW,307,4.0,9.0,58,0.00,,,0.00,LWC V2.10 B1813,2013-09-08 22:57:00,
2013-09-08 19:02:00,71.2,56.1,29.91,WSW,254,2.0,8.0,59,0.00,,,0.00,LWC V2.10 B1813,2013-09-08 23:02:00,
2013-09-08 19:07:00,70.8,56.2,29.91,NW,309,0.0,5.0,60,0.00,,,0.00,LWC V2.10 B1813,2013-09-08 23:07:00,
2013-09-08 19:13:00,70.5,55.5,29.91,NW,317,5.0,11.0,59,0.00,,,0.00,LWC V2.10 B1813,2013-09-08 23:13:00,
2013-09-08 19:18:00,70.3,55.3,29.91,NW,325,5.0,9.0,59,0.00,,,0.00,LWC V2.10 B1813,2013-09-08 23:18:00,
2013-09-08 19:23:00,70.1,56.0,29.92,NW,321,3.0,6.0,61,0.00,,,0.00,LWC V2.10 B1813,2013-09-08 23:23:00,
2013-09-08 19:28:00,69.9,55.4,29.92,WNW,288,1.0,8.0,60,0.00,,,0.00,LWC V2.10 B1813,2013-09-08 23:28:00,
2013-09-08 19:34:00,69.8,55.7,29.93,NW,322,2.0,9.0,61,0.00,,,0.00,LWC V2.10 B1813,2013-09-08 23:34:00,
2013-09-08 19:39:00,69.7,55.2,29.93,NNW,327,3.0,9.0,60,0.00,,,0.00,LWC V2.10 B1813,2013-09-08 23:39:00,
2013-09-08 19:44:00,69.5,55.4,29.93,NW,321,5.0,11.0,61,0.00,,,0.00,LWC V2.10 B1813,2013-09-08 23:44:00,
2013-09-08 19:49:00,69.3,54.8,29.93,WNW,295,6.0,10.0,60,0.00,,,0.00,LWC V2.10 B1813,2013-09-08 23:49:00,
2013-09-08 19:55:00,69.3,54.3,29.94,WNW,298,4.0,10.0,59,0.00,,,0.00,LWC V2.10 B1813,2013-09-08 23:55:00,
2013-09-08 20:00:00,69.2,54.3,29.95,NW,309,2.0,9.0,59,0.00,,,0.00,LWC V2.10 B1813,2013-09-09 00:00:00,
2013-09-08 20:05:00,69.1,54.2,29.95,NNW,327,4.0,8.0,59,0.00,,,0.00,LWC V2.10 B1813,2013-09-09 00:05:00,
2013-09-08 20:10:00,69.0,54.5,29.96,NNW,329,8.0,9.0,60,0.00,,,0.00,LWC V2.10 B1813,2013-09-09 00:10:00,
2013-09-08 20:16:00,68.9,54.9,29.96,NW,305,5.0,9.0,61,0.00,,,0.00,LWC V2.10 B1813,2013-09-09 00:16:00,
2013-09-08 20:21:00,68.7,54.7,29.96,West,273,4.0,11.0,61,0.00,,,0.00,LWC V2.10 B1813,2013-09-09 00:21:00,
2013-09-08 20:26:00,68.5,54.5,29.97,NNE,32,6.0,11.0,61,0.00,,,0.00,LWC V2.10 B1813,2013-09-09 00:26:00,
2013-09-08 20:31:00,68.3,53.9,29.97,WNW,289,1.0,10.0,60,0.00,,,0.00,LWC V2.10 B1813,2013-09-09 00:31:00,
2013-09-08 20:37:00,68.2,53.8,29.98,NNW,346,6.0,9.0,60,0.00,,,0.00,LWC V2.10 B1813,2013-09-09 00:37:00,
2013-09-08 20:42:00,68.1,53.7,29.98,WNW,293,8.0,8.0,60,0.00,,,0.00,LWC V2.10 B1813,2013-09-09 00:42:00,
2013-09-08 20:47:00,67.9,53.5,29.98,NW,314,4.0,9.0,60,0.00,,,0.00,LWC V2.10 B1813,2013-09-09 00:47:00,
2013-09-08 20:52:00,67.6,53.2,29.99,NW,312,2.0,9.0,60,0.00,,,0.00,LWC V2.10 B1813,2013-09-09 00:52:00,
2013-09-08 20:58:00,67.3,53.4,29.99,WNW,291,4.0,7.0,61,0.00,,,0.00,LWC V2.10 B1813,2013-09-09 00:58:00,
2013-09-08 21:03:00,67.2,52.8,29.99,NW,311,1.0,11.0,60,0.00,,,0.00,LWC V2.10 B1813,2013-09-09 01:03:00,
2013-09-08 21:08:00,67.4,53.0,29.99,NNW,340,3.0,11.0,60,0.00,,,0.00,LWC V2.10 B1813,2013-09-09 01:08:00,
2013-09-08 21:13:00,67.4,52.6,30.00,WNW,302,8.0,13.0,59,0.00,,,0.00,LWC V2.10 B1813,2013-09-09 01:13:00,
2013-09-08 21:19:00,67.3,52.0,30.00,SW,226,8.0,14.0,58,0.00,,,0.00,LWC V2.10 B1813,2013-09-09 01:19:00,
2013-09-08 21:24:00,67.1,52.3,30.00,NNE,15,10.0,13.0,59,0.00,,,0.00,LWC V2.10 B1813,2013-09-09 01:24:00,
2013-09-08 21:29:00,66.9,52.1,30.00,NNW,340,8.0,14.0,59,0.00,,,0.00,LWC V2.10 B1813,2013-09-09 01:29:00,
2013-09-08 21:34:00,66.8,52.5,30.01,North,0,7.0,13.0,60,0.00,,,0.00,LWC V2.10 B1813,2013-09-09 01:34:00,
2013-09-08 21:40:00,66.6,52.3,30.01,NNW,340,9.0,9.0,60,0.00,,,0.00,LWC V2.10 B1813,2013-09-09 01:40:00,
2013-09-08 21:45:00,66.6,52.3,30.01,North,355,11.0,14.0,60,0.00,,,0.00,LWC V2.10 B1813,2013-09-09 01:45:00,
2013-09-08 21:50:00,66.5,52.2,30.01,WNW,288,6.0,8.0,60,0.00,,,0.00,LWC V2.10 B1813,2013-09-09 01:50:00,
2013-09-08 21:55:00,66.3,51.5,30.01,NNW,331,6.0,14.0,59,0.00,,,0.00,LWC V2.10 B1813,2013-09-09 01:55:00,
2013-09-08 22:01:00,66.2,51.0,30.02,NW,307,6.0,11.0,58,0.00,,,0.00,LWC V2.10 B1813,2013-09-09 02:01:00,
2013-09-08 22:06:00,66.1,52.3,30.02,North,5,7.0,14.0,61,0.00,,,0.00,LWC V2.10 B1813,2013-09-09 02:06:00,
2013-09-08 22:11:00,65.9,51.6,30.02,North,0,13.0,13.0,60,0.00,,,0.00,LWC V2.10 B1813,2013-09-09 02:11:00,
2013-09-08 22:16:00,65.6,51.3,30.02,NNW,340,7.0,14.0,60,0.00,,,0.00,LWC V2.10 B1813,2013-09-09 02:16:00,
2013-09-08 22:22:00,65.5,51.2,30.03,NW,311,7.0,19.0,60,0.00,,,0.00,LWC V2.10 B1813,2013-09-09 02:22:00,
2013-09-08 22:27:00,65.2,51.0,30.03,North,355,6.0,11.0,60,0.00,,,0.00,LWC V2.10 B1813,2013-09-09 02:27:00,
2013-09-08 22:32:00,65.0,51.7,30.03,NW,317,7.0,10.0,62,0.00,,,0.00,LWC V2.10 B1813,2013-09-09 02:32:00,
2013-09-08 22:37:00,64.8,51.9,30.04,NW,322,6.0,9.0,63,0.00,,,0.00,LWC V2.10 B1813,2013-09-09 02:37:00,
2013-09-08 22:43:00,64.6,51.3,30.04,NNW,342,1.0,11.0,62,0.00,,,0.00,LWC V2.10 B1813,2013-09-09 02:43:00,
2013-09-08 22:48:00,64.4,51.5,30.04,NW,317,4.0,8.0,63,0.00,,,0.00,LWC V2.10 B1813,2013-09-09 02:48:00,
2013-09-08 22:53:00,64.1,51.2,30.04,NNW,346,9.0,12.0,63,0.00,,,0.00,LWC V2.10 B1813,2013-09-09 02:53:00,
2013-09-08 22:58:00,64.0,50.7,30.05,NNW,337,6.0,13.0,62,0.00,,,0.00,LWC V2.10 B1813,2013-09-09 02:58:00,
2013-09-08 23:04:00,63.8,50.5,30.04,NW,319,4.0,15.0,62,0.00,,,0.00,LWC V2.10 B1813,2013-09-09 03:04:00,
2013-09-08 23:09:00,63.6,49.9,30.05,NW,312,4.0,13.0,61,0.00,,,0.00,LWC V2.10 B1813,2013-09-09 03:09:00,
2013-09-08 23:14:00,63.6,50.3,30.04,NW,319,1.0,12.0,62,0.00,,,0.00,LWC V2.10 B1813,2013-09-09 03:14:00,
2013-09-08 23:19:00,63.4,49.3,30.04,NNW,345,7.0,14.0,60,0.00,,,0.00,LWC V2.10 B1813,2013-09-09 03:19:00,
2013-09-08 23:25:00,63.3,49.6,30.05,North,355,10.0,13.0,61,0.00,,,0.00,LWC V2.10 B1813,2013-09-09 03:25:00,
2013-09-08 23:30:00,63.3,49.6,30.05,NNE,16,5.0,12.0,61,0.00,,,0.00,LWC V2.10 B1813,2013-09-09 03:30:00,
2013-09-08 23:35:00,63.2,49.5,30.05,NNW,344,5.0,12.0,61,0.00,,,0.00,LWC V2.10 B1813,2013-09-09 03:35:00,
2013-09-08 23:40:00,63.1,49.4,30.05,NW,315,5.0,12.0,61,0.00,,,0.00,LWC V2.10 B1813,2013-09-09 03:40:00,
2013-09-08 23:46:00,63.1,49.9,30.06,NNW,339,4.0,10.0,62,0.00,,,0.00,LWC V2.10 B1813,2013-09-09 03:46:00,
2013-09-08 23:51:00,63.1,49.4,30.05,NW,319,3.0,8.0,61,0.00,,,0.00,LWC V2.10 B1813,2013-09-09 03:51:00,
2013-09-08 23:56:00,63.0,50.2,30.06,North,11,8.0,10.0,63,0.00,,,0.00,LWC V2.10 B1813,2013-09-09 03:56:00,